<?xml version="1.0" encoding="ISO-8859-1" standalone="yes"?>
<gpx
 version="1.0"
 creator="OziExplorer Version 3954q - http://www.oziexplorer.com"
 xmlns:xsi="http://www.w3.org/2001/XMLSchema-instance"
 xmlns="http://www.topografix.com/GPX/1/0"
 xsi:schemaLocation="http://www.topografix.com/GPX/1/0 http://www.topografix.com/GPX/1/0/gpx.xsd">
<time>2017-03-11T16:10:23Z</time>
<bounds minlat="38.923287" minlon="-5.665809" maxlat="38.966893" maxlon="-5.630126"/>
<wpt lat="38.9656800" lon="-5.6313530">
 <ele>285.699982</ele>
 <time>2007-11-06T08:18:21.000Z</time>
 <name>Ermita Sta Maria. Fin Ruta</name>
</wpt>
<wpt lat="38.9220730" lon="-5.6647120">
 <ele>364.000000</ele>
 <time>2007-11-06T08:18:21.000Z</time>
 <name>INICIO</name>
</wpt>
<trk>
 <desc>Track- filtered</desc>
<trkseg>
<trkpt lat="38.9221000" lon="-5.6647170">
<ele>362.203125</ele>
<time>2007-11-05T11:13:38.000Z</time>
</trkpt>
<trkpt lat="38.9221830" lon="-5.6648830">
<ele>362.195313</ele>
<time>2007-11-05T11:13:43.000Z</time>
</trkpt>
<trkpt lat="38.9224330" lon="-5.6652000">
<ele>361.945313</ele>
<time>2007-11-05T11:13:49.000Z</time>
</trkpt>
<trkpt lat="38.9226000" lon="-5.6654670">
<ele>361.253906</ele>
<time>2007-11-05T11:13:53.000Z</time>
</trkpt>
<trkpt lat="38.9229830" lon="-5.6659500">
<ele>360.609406</ele>
<time>2007-11-05T11:14:01.000Z</time>
</trkpt>
<trkpt lat="38.9230670" lon="-5.6660170">
<ele>360.085938</ele>
<time>2007-11-05T11:14:03.000Z</time>
</trkpt>
<trkpt lat="38.9231500" lon="-5.6660500">
<ele>359.632813</ele>
<time>2007-11-05T11:14:06.000Z</time>
</trkpt>
<trkpt lat="38.9234000" lon="-5.6660330">
<ele>358.160156</ele>
<time>2007-11-05T11:14:46.000Z</time>
</trkpt>
<trkpt lat="38.9235170" lon="-5.6660170">
<ele>357.226563</ele>
<time>2007-11-05T11:14:50.000Z</time>
</trkpt>
<trkpt lat="38.9236170" lon="-5.6659830">
<ele>356.390625</ele>
<time>2007-11-05T11:14:54.000Z</time>
</trkpt>
<trkpt lat="38.9239000" lon="-5.6659830">
<ele>354.875000</ele>
<time>2007-11-05T11:15:01.000Z</time>
</trkpt>
<trkpt lat="38.9239500" lon="-5.6660000">
<ele>354.648468</ele>
<time>2007-11-05T11:15:02.000Z</time>
</trkpt>
<trkpt lat="38.9240170" lon="-5.6660330">
<ele>354.648468</ele>
<time>2007-11-05T11:15:03.000Z</time>
</trkpt>
<trkpt lat="38.9243330" lon="-5.6663170">
<ele>354.449219</ele>
<time>2007-11-05T11:15:09.000Z</time>
</trkpt>
<trkpt lat="38.9245170" lon="-5.6664500">
<ele>354.578125</ele>
<time>2007-11-05T11:15:12.000Z</time>
</trkpt>
<trkpt lat="38.9245830" lon="-5.6664829">
<ele>354.699219</ele>
<time>2007-11-05T11:15:13.000Z</time>
</trkpt>
<trkpt lat="38.9247670" lon="-5.6666330">
<ele>354.472656</ele>
<time>2007-11-05T11:15:16.000Z</time>
</trkpt>
<trkpt lat="38.9248670" lon="-5.6667670">
<ele>354.242188</ele>
<time>2007-11-05T11:15:18.000Z</time>
</trkpt>
<trkpt lat="38.9250500" lon="-5.6669170">
<ele>354.191406</ele>
<time>2007-11-05T11:15:21.000Z</time>
</trkpt>
<trkpt lat="38.9251830" lon="-5.6669830">
<ele>353.937500</ele>
<time>2007-11-05T11:15:23.000Z</time>
</trkpt>
<trkpt lat="38.9253170" lon="-5.6670170">
<ele>353.714844</ele>
<time>2007-11-05T11:15:25.000Z</time>
</trkpt>
<trkpt lat="38.9255670" lon="-5.6670170">
<ele>353.085938</ele>
<time>2007-11-05T11:15:29.000Z</time>
</trkpt>
<trkpt lat="38.9258170" lon="-5.6669670">
<ele>352.570343</ele>
<time>2007-11-05T11:15:33.000Z</time>
</trkpt>
<trkpt lat="38.9259670" lon="-5.6668670">
<ele>352.082031</ele>
<time>2007-11-05T11:15:37.000Z</time>
</trkpt>
<trkpt lat="38.9261330" lon="-5.6666670">
<ele>351.078156</ele>
<time>2007-11-05T11:15:42.000Z</time>
</trkpt>
<trkpt lat="38.9265330" lon="-5.6661000">
<ele>350.917969</ele>
<time>2007-11-05T11:16:36.000Z</time>
</trkpt>
<trkpt lat="38.9266330" lon="-5.6660000">
<ele>351.054688</ele>
<time>2007-11-05T11:16:39.000Z</time>
</trkpt>
<trkpt lat="38.9270830" lon="-5.6657830">
<ele>352.507813</ele>
<time>2007-11-05T11:16:47.000Z</time>
</trkpt>
<trkpt lat="38.9272330" lon="-5.6656170">
<ele>353.847656</ele>
<time>2007-11-05T11:16:50.000Z</time>
</trkpt>
<trkpt lat="38.9273000" lon="-5.6655670">
<ele>354.421875</ele>
<time>2007-11-05T11:16:51.000Z</time>
</trkpt>
<trkpt lat="38.9277000" lon="-5.6650670">
<ele>356.800781</ele>
<time>2007-11-05T11:16:58.000Z</time>
</trkpt>
<trkpt lat="38.9279500" lon="-5.6648330">
<ele>356.671875</ele>
<time>2007-11-05T11:17:01.000Z</time>
</trkpt>
<trkpt lat="38.9281330" lon="-5.6646999">
<ele>356.460907</ele>
<time>2007-11-05T11:17:03.000Z</time>
</trkpt>
<trkpt lat="38.9282330" lon="-5.6646500">
<ele>356.277344</ele>
<time>2007-11-05T11:17:04.000Z</time>
</trkpt>
<trkpt lat="38.9285500" lon="-5.6645500">
<ele>356.015625</ele>
<time>2007-11-05T11:17:07.000Z</time>
</trkpt>
<trkpt lat="38.9291830" lon="-5.6644000">
<ele>355.871063</ele>
<time>2007-11-05T11:17:13.000Z</time>
</trkpt>
<trkpt lat="38.9293000" lon="-5.6643829">
<ele>355.746094</ele>
<time>2007-11-05T11:17:14.000Z</time>
</trkpt>
<trkpt lat="38.9296830" lon="-5.6643829">
<ele>354.937531</ele>
<time>2007-11-05T11:17:17.000Z</time>
</trkpt>
<trkpt lat="38.9302000" lon="-5.6644500">
<ele>353.996094</ele>
<time>2007-11-05T11:17:21.000Z</time>
</trkpt>
<trkpt lat="38.9305830" lon="-5.6644500">
<ele>353.867188</ele>
<time>2007-11-05T11:17:24.000Z</time>
</trkpt>
<trkpt lat="38.9308330" lon="-5.6644000">
<ele>353.074219</ele>
<time>2007-11-05T11:17:26.000Z</time>
</trkpt>
<trkpt lat="38.9310670" lon="-5.6642829">
<ele>352.691406</ele>
<time>2007-11-05T11:17:28.000Z</time>
</trkpt>
<trkpt lat="38.9317330" lon="-5.6637330">
<ele>350.988281</ele>
<time>2007-11-05T11:17:34.000Z</time>
</trkpt>
<trkpt lat="38.9320830" lon="-5.6634830">
<ele>349.757813</ele>
<time>2007-11-05T11:17:37.000Z</time>
</trkpt>
<trkpt lat="38.9324500" lon="-5.6632670">
<ele>348.839844</ele>
<time>2007-11-05T11:17:40.000Z</time>
</trkpt>
<trkpt lat="38.9330000" lon="-5.6628830">
<ele>347.367188</ele>
<time>2007-11-05T11:17:45.000Z</time>
</trkpt>
<trkpt lat="38.9334330" lon="-5.6625500">
<ele>346.664063</ele>
<time>2007-11-05T11:17:49.000Z</time>
</trkpt>
<trkpt lat="38.9336500" lon="-5.6623500">
<ele>346.394531</ele>
<time>2007-11-05T11:17:51.000Z</time>
</trkpt>
<trkpt lat="38.9342170" lon="-5.6617330">
<ele>346.011749</ele>
<time>2007-11-05T11:17:57.000Z</time>
</trkpt>
<trkpt lat="38.9347670" lon="-5.6613170">
<ele>346.113281</ele>
<time>2007-11-05T11:18:02.000Z</time>
</trkpt>
<trkpt lat="38.9350670" lon="-5.6610670">
<ele>345.328125</ele>
<time>2007-11-05T11:18:05.000Z</time>
</trkpt>
<trkpt lat="38.9353330" lon="-5.6607830">
<ele>344.597656</ele>
<time>2007-11-05T11:18:08.000Z</time>
</trkpt>
<trkpt lat="38.9354670" lon="-5.6606170">
<ele>343.898438</ele>
<time>2007-11-05T11:18:10.000Z</time>
</trkpt>
<trkpt lat="38.9355500" lon="-5.6604670">
<ele>343.023468</ele>
<time>2007-11-05T11:18:12.000Z</time>
</trkpt>
<trkpt lat="38.9358000" lon="-5.6598830">
<ele>340.015625</ele>
<time>2007-11-05T11:18:18.000Z</time>
</trkpt>
<trkpt lat="38.9360830" lon="-5.6594330">
<ele>338.097656</ele>
<time>2007-11-05T11:18:22.000Z</time>
</trkpt>
<trkpt lat="38.9363330" lon="-5.6591670">
<ele>337.257813</ele>
<time>2007-11-05T11:18:25.000Z</time>
</trkpt>
<trkpt lat="38.9365670" lon="-5.6588500">
<ele>337.800781</ele>
<time>2007-11-05T11:18:28.000Z</time>
</trkpt>
<trkpt lat="38.9368330" lon="-5.6585500">
<ele>339.925781</ele>
<time>2007-11-05T11:18:31.000Z</time>
</trkpt>
<trkpt lat="38.9369330" lon="-5.6584670">
<ele>340.363312</ele>
<time>2007-11-05T11:18:32.000Z</time>
</trkpt>
<trkpt lat="38.9373330" lon="-5.6580170">
<ele>343.394531</ele>
<time>2007-11-05T11:18:37.000Z</time>
</trkpt>
<trkpt lat="38.9377170" lon="-5.6576500">
<ele>346.562500</ele>
<time>2007-11-05T11:18:42.000Z</time>
</trkpt>
<trkpt lat="38.9377830" lon="-5.6575500">
<ele>346.851563</ele>
<time>2007-11-05T11:18:43.000Z</time>
</trkpt>
<trkpt lat="38.9386000" lon="-5.6566830">
<ele>344.058594</ele>
<time>2007-11-05T11:18:53.000Z</time>
</trkpt>
<trkpt lat="38.9388330" lon="-5.6564000">
<ele>341.234375</ele>
<time>2007-11-05T11:18:56.000Z</time>
</trkpt>
<trkpt lat="38.9389500" lon="-5.6561830">
<ele>339.792938</ele>
<time>2007-11-05T11:18:58.000Z</time>
</trkpt>
<trkpt lat="38.9392170" lon="-5.6556000">
<ele>338.910156</ele>
<time>2007-11-05T11:19:03.000Z</time>
</trkpt>
<trkpt lat="38.9394170" lon="-5.6553170">
<ele>339.355469</ele>
<time>2007-11-05T11:19:06.000Z</time>
</trkpt>
<trkpt lat="38.9396000" lon="-5.6551830">
<ele>340.132813</ele>
<time>2007-11-05T11:19:08.000Z</time>
</trkpt>
<trkpt lat="38.9399670" lon="-5.6548500">
<ele>341.468750</ele>
<time>2007-11-05T11:19:12.000Z</time>
</trkpt>
<trkpt lat="38.9401170" lon="-5.6546670">
<ele>342.191406</ele>
<time>2007-11-05T11:19:14.000Z</time>
</trkpt>
<trkpt lat="38.9409830" lon="-5.6537330">
<ele>341.390625</ele>
<time>2007-11-05T11:19:24.000Z</time>
</trkpt>
<trkpt lat="38.9416830" lon="-5.6528170">
<ele>336.847656</ele>
<time>2007-11-05T11:19:34.000Z</time>
</trkpt>
<trkpt lat="38.9418670" lon="-5.6526830">
<ele>335.515625</ele>
<time>2007-11-05T11:19:36.000Z</time>
</trkpt>
<trkpt lat="38.9421500" lon="-5.6525329">
<ele>333.824188</ele>
<time>2007-11-05T11:19:39.000Z</time>
</trkpt>
<trkpt lat="38.9422330" lon="-5.6524670">
<ele>332.992188</ele>
<time>2007-11-05T11:19:40.000Z</time>
</trkpt>
<trkpt lat="38.9426000" lon="-5.6522670">
<ele>330.312500</ele>
<time>2007-11-05T11:19:44.000Z</time>
</trkpt>
<trkpt lat="38.9432500" lon="-5.6519670">
<ele>328.078125</ele>
<time>2007-11-05T11:19:53.000Z</time>
</trkpt>
<trkpt lat="38.9433500" lon="-5.6519000">
<ele>327.679688</ele>
<time>2007-11-05T11:19:55.000Z</time>
</trkpt>
<trkpt lat="38.9434000" lon="-5.6518830">
<ele>327.570343</ele>
<time>2007-11-05T11:19:56.000Z</time>
</trkpt>
<trkpt lat="38.9434330" lon="-5.6518500">
<ele>327.468750</ele>
<time>2007-11-05T11:19:57.000Z</time>
</trkpt>
<trkpt lat="38.9436330" lon="-5.6517500">
<ele>327.062500</ele>
<time>2007-11-05T11:20:07.000Z</time>
</trkpt>
<trkpt lat="38.9440170" lon="-5.6515000">
<ele>325.742188</ele>
<time>2007-11-05T11:20:34.000Z</time>
</trkpt>
<trkpt lat="38.9445830" lon="-5.6512000">
<ele>325.269531</ele>
<time>2007-11-05T11:20:44.000Z</time>
</trkpt>
<trkpt lat="38.9447330" lon="-5.6511000">
<ele>324.906219</ele>
<time>2007-11-05T11:20:46.000Z</time>
</trkpt>
<trkpt lat="38.9448830" lon="-5.6509500">
<ele>324.292999</ele>
<time>2007-11-05T11:20:48.000Z</time>
</trkpt>
<trkpt lat="38.9452170" lon="-5.6504830">
<ele>323.082062</ele>
<time>2007-11-05T11:20:53.000Z</time>
</trkpt>
<trkpt lat="38.9454330" lon="-5.6502500">
<ele>322.894531</ele>
<time>2007-11-05T11:20:56.000Z</time>
</trkpt>
<trkpt lat="38.9455170" lon="-5.6501830">
<ele>322.402344</ele>
<time>2007-11-05T11:20:57.000Z</time>
</trkpt>
<trkpt lat="38.9458170" lon="-5.6500330">
<ele>321.371094</ele>
<time>2007-11-05T11:21:00.000Z</time>
</trkpt>
<trkpt lat="38.9462170" lon="-5.6498670">
<ele>321.097656</ele>
<time>2007-11-05T11:21:04.000Z</time>
</trkpt>
<trkpt lat="38.9465500" lon="-5.6496670">
<ele>320.554688</ele>
<time>2007-11-05T11:21:08.000Z</time>
</trkpt>
<trkpt lat="38.9467000" lon="-5.6495000">
<ele>320.359375</ele>
<time>2007-11-05T11:21:10.000Z</time>
</trkpt>
<trkpt lat="38.9471670" lon="-5.6488330">
<ele>319.449219</ele>
<time>2007-11-05T11:21:16.000Z</time>
</trkpt>
<trkpt lat="38.9473670" lon="-5.6484670">
<ele>318.640656</ele>
<time>2007-11-05T11:21:19.000Z</time>
</trkpt>
<trkpt lat="38.9476000" lon="-5.6481500">
<ele>318.269531</ele>
<time>2007-11-05T11:21:22.000Z</time>
</trkpt>
<trkpt lat="38.9479670" lon="-5.6478330">
<ele>317.417969</ele>
<time>2007-11-05T11:21:26.000Z</time>
</trkpt>
<trkpt lat="38.9486830" lon="-5.6474170">
<ele>316.453125</ele>
<time>2007-11-05T11:21:33.000Z</time>
</trkpt>
<trkpt lat="38.9487830" lon="-5.6473670">
<ele>316.234406</ele>
<time>2007-11-05T11:21:34.000Z</time>
</trkpt>
<trkpt lat="38.9493330" lon="-5.6472170">
<ele>316.550812</ele>
<time>2007-11-05T11:21:39.000Z</time>
</trkpt>
<trkpt lat="38.9495330" lon="-5.6471330">
<ele>317.054688</ele>
<time>2007-11-05T11:21:41.000Z</time>
</trkpt>
<trkpt lat="38.9496170" lon="-5.6470670">
<ele>317.320313</ele>
<time>2007-11-05T11:21:42.000Z</time>
</trkpt>
<trkpt lat="38.9497330" lon="-5.6469000">
<ele>317.058594</ele>
<time>2007-11-05T11:21:44.000Z</time>
</trkpt>
<trkpt lat="38.9497500" lon="-5.6468000">
<ele>316.601563</ele>
<time>2007-11-05T11:21:45.000Z</time>
</trkpt>
<trkpt lat="38.9497170" lon="-5.6465000">
<ele>315.105469</ele>
<time>2007-11-05T11:21:48.000Z</time>
</trkpt>
<trkpt lat="38.9497330" lon="-5.6463830">
<ele>314.445313</ele>
<time>2007-11-05T11:21:49.000Z</time>
</trkpt>
<trkpt lat="38.9498170" lon="-5.6462170">
<ele>313.011688</ele>
<time>2007-11-05T11:21:51.000Z</time>
</trkpt>
<trkpt lat="38.9507330" lon="-5.6454500">
<ele>311.335938</ele>
<time>2007-11-05T11:22:02.000Z</time>
</trkpt>
<trkpt lat="38.9512330" lon="-5.6451170">
<ele>314.402344</ele>
<time>2007-11-05T11:22:07.000Z</time>
</trkpt>
<trkpt lat="38.9514000" lon="-5.6449670">
<ele>316.375000</ele>
<time>2007-11-05T11:22:09.000Z</time>
</trkpt>
<trkpt lat="38.9518670" lon="-5.6444170">
<ele>320.960938</ele>
<time>2007-11-05T11:22:15.000Z</time>
</trkpt>
<trkpt lat="38.9520500" lon="-5.6442830">
<ele>321.953125</ele>
<time>2007-11-05T11:22:17.000Z</time>
</trkpt>
<trkpt lat="38.9521500" lon="-5.6442330">
<ele>322.312500</ele>
<time>2007-11-05T11:22:18.000Z</time>
</trkpt>
<trkpt lat="38.9526170" lon="-5.6438830">
<ele>324.542969</ele>
<time>2007-11-05T11:22:23.000Z</time>
</trkpt>
<trkpt lat="38.9529170" lon="-5.6436830">
<ele>325.257813</ele>
<time>2007-11-05T11:22:26.000Z</time>
</trkpt>
<trkpt lat="38.9530000" lon="-5.6436000">
<ele>325.152344</ele>
<time>2007-11-05T11:22:27.000Z</time>
</trkpt>
<trkpt lat="38.9532670" lon="-5.6433170">
<ele>324.097656</ele>
<time>2007-11-05T11:22:30.000Z</time>
</trkpt>
<trkpt lat="38.9536670" lon="-5.6427670">
<ele>322.699219</ele>
<time>2007-11-05T11:22:35.000Z</time>
</trkpt>
<trkpt lat="38.9547170" lon="-5.6409330">
<ele>331.679688</ele>
<time>2007-11-05T11:22:50.000Z</time>
</trkpt>
<trkpt lat="38.9549830" lon="-5.6403500">
<ele>334.031250</ele>
<time>2007-11-05T11:22:55.000Z</time>
</trkpt>
<trkpt lat="38.9551000" lon="-5.6401670">
<ele>333.359375</ele>
<time>2007-11-05T11:22:57.000Z</time>
</trkpt>
<trkpt lat="38.9552330" lon="-5.6399830">
<ele>332.191406</ele>
<time>2007-11-05T11:22:59.000Z</time>
</trkpt>
<trkpt lat="38.9553670" lon="-5.6398500">
<ele>330.667969</ele>
<time>2007-11-05T11:23:01.000Z</time>
</trkpt>
<trkpt lat="38.9555330" lon="-5.6397670">
<ele>329.550781</ele>
<time>2007-11-05T11:23:03.000Z</time>
</trkpt>
<trkpt lat="38.9559330" lon="-5.6396830">
<ele>327.609375</ele>
<time>2007-11-05T11:23:07.000Z</time>
</trkpt>
<trkpt lat="38.9561500" lon="-5.6396000">
<ele>327.714844</ele>
<time>2007-11-05T11:23:09.000Z</time>
</trkpt>
<trkpt lat="38.9563500" lon="-5.6394670">
<ele>328.128906</ele>
<time>2007-11-05T11:23:11.000Z</time>
</trkpt>
<trkpt lat="38.9565170" lon="-5.6393169">
<ele>329.328125</ele>
<time>2007-11-05T11:23:13.000Z</time>
</trkpt>
<trkpt lat="38.9570000" lon="-5.6386830">
<ele>331.246094</ele>
<time>2007-11-05T11:23:21.000Z</time>
</trkpt>
<trkpt lat="38.9573170" lon="-5.6385000">
<ele>328.898438</ele>
<time>2007-11-05T11:23:25.000Z</time>
</trkpt>
<trkpt lat="38.9577830" lon="-5.6383670">
<ele>328.484344</ele>
<time>2007-11-05T11:23:30.000Z</time>
</trkpt>
<trkpt lat="38.9580330" lon="-5.6381830">
<ele>329.214844</ele>
<time>2007-11-05T11:23:33.000Z</time>
</trkpt>
<trkpt lat="38.9582670" lon="-5.6379830">
<ele>329.820313</ele>
<time>2007-11-05T11:23:36.000Z</time>
</trkpt>
<trkpt lat="38.9584670" lon="-5.6378830">
<ele>330.296875</ele>
<time>2007-11-05T11:23:39.000Z</time>
</trkpt>
<trkpt lat="38.9586500" lon="-5.6378499">
<ele>329.445313</ele>
<time>2007-11-05T11:23:51.000Z</time>
</trkpt>
<trkpt lat="38.9595000" lon="-5.6376170">
<ele>320.621094</ele>
<time>2007-11-05T11:24:03.000Z</time>
</trkpt>
<trkpt lat="38.9600170" lon="-5.6374500">
<ele>316.828125</ele>
<time>2007-11-05T11:24:09.000Z</time>
</trkpt>
<trkpt lat="38.9607000" lon="-5.6372670">
<ele>310.925781</ele>
<time>2007-11-05T11:24:17.000Z</time>
</trkpt>
<trkpt lat="38.9609330" lon="-5.6371330">
<ele>308.460938</ele>
<time>2007-11-05T11:24:20.000Z</time>
</trkpt>
<trkpt lat="38.9610670" lon="-5.6369500">
<ele>306.125000</ele>
<time>2007-11-05T11:24:23.000Z</time>
</trkpt>
<trkpt lat="38.9610830" lon="-5.6367999">
<ele>305.250000</ele>
<time>2007-11-05T11:24:25.000Z</time>
</trkpt>
<trkpt lat="38.9610830" lon="-5.6367170">
<ele>304.808594</ele>
<time>2007-11-05T11:24:26.000Z</time>
</trkpt>
<trkpt lat="38.9609830" lon="-5.6361500">
<ele>302.585938</ele>
<time>2007-11-05T11:24:32.000Z</time>
</trkpt>
<trkpt lat="38.9609330" lon="-5.6359500">
<ele>301.796875</ele>
<time>2007-11-05T11:24:34.000Z</time>
</trkpt>
<trkpt lat="38.9608330" lon="-5.6356670">
<ele>300.515625</ele>
<time>2007-11-05T11:24:37.000Z</time>
</trkpt>
<trkpt lat="38.9608170" lon="-5.6355670">
<ele>299.875000</ele>
<time>2007-11-05T11:24:38.000Z</time>
</trkpt>
<trkpt lat="38.9608170" lon="-5.6352500">
<ele>297.730469</ele>
<time>2007-11-05T11:24:41.000Z</time>
</trkpt>
<trkpt lat="38.9608330" lon="-5.6351500">
<ele>296.753906</ele>
<time>2007-11-05T11:24:42.000Z</time>
</trkpt>
<trkpt lat="38.9608170" lon="-5.6343000">
<ele>292.121094</ele>
<time>2007-11-05T11:24:50.000Z</time>
</trkpt>
<trkpt lat="38.9608500" lon="-5.6340830">
<ele>289.968750</ele>
<time>2007-11-05T11:24:52.000Z</time>
</trkpt>
<trkpt lat="38.9609170" lon="-5.6338669">
<ele>287.859375</ele>
<time>2007-11-05T11:24:54.000Z</time>
</trkpt>
<trkpt lat="38.9610170" lon="-5.6336500">
<ele>285.867188</ele>
<time>2007-11-05T11:24:56.000Z</time>
</trkpt>
<trkpt lat="38.9611670" lon="-5.6334499">
<ele>283.578125</ele>
<time>2007-11-05T11:24:58.000Z</time>
</trkpt>
<trkpt lat="38.9618670" lon="-5.6329169">
<ele>282.230469</ele>
<time>2007-11-05T11:25:06.000Z</time>
</trkpt>
<trkpt lat="38.9623670" lon="-5.6324170">
<ele>278.863281</ele>
<time>2007-11-05T11:25:14.000Z</time>
</trkpt>
<trkpt lat="38.9625670" lon="-5.6322670">
<ele>277.867188</ele>
<time>2007-11-05T11:25:17.000Z</time>
</trkpt>
<trkpt lat="38.9626330" lon="-5.6322330">
<ele>277.457031</ele>
<time>2007-11-05T11:25:18.000Z</time>
</trkpt>
<trkpt lat="38.9628830" lon="-5.6322330">
<ele>277.050781</ele>
<time>2007-11-05T11:25:21.000Z</time>
</trkpt>
<trkpt lat="38.9630830" lon="-5.6323330">
<ele>277.171875</ele>
<time>2007-11-05T11:25:24.000Z</time>
</trkpt>
<trkpt lat="38.9633170" lon="-5.6325330">
<ele>276.878906</ele>
<time>2007-11-05T11:25:28.000Z</time>
</trkpt>
<trkpt lat="38.9634330" lon="-5.6326000">
<ele>276.812500</ele>
<time>2007-11-05T11:25:30.000Z</time>
</trkpt>
<trkpt lat="38.9635330" lon="-5.6326330">
<ele>276.898438</ele>
<time>2007-11-05T11:25:32.000Z</time>
</trkpt>
<trkpt lat="38.9636330" lon="-5.6326330">
<ele>276.851563</ele>
<time>2007-11-05T11:25:34.000Z</time>
</trkpt>
<trkpt lat="38.9637830" lon="-5.6325500">
<ele>276.410156</ele>
<time>2007-11-05T11:25:38.000Z</time>
</trkpt>
<trkpt lat="38.9639170" lon="-5.6322670">
<ele>276.136719</ele>
<time>2007-11-05T11:26:36.000Z</time>
</trkpt>
<trkpt lat="38.9640330" lon="-5.6321330">
<ele>275.605469</ele>
<time>2007-11-05T11:26:40.000Z</time>
</trkpt>
<trkpt lat="38.9647500" lon="-5.6316500">
<ele>276.015625</ele>
<time>2007-11-05T11:26:58.000Z</time>
</trkpt>
<trkpt lat="38.9650330" lon="-5.6315000">
<ele>277.207031</ele>
<time>2007-11-05T11:27:03.000Z</time>
</trkpt>
<trkpt lat="38.9653170" lon="-5.6314170">
<ele>278.589844</ele>
<time>2007-11-05T11:27:09.000Z</time>
</trkpt>
<trkpt lat="38.9656000" lon="-5.6314170">
<ele>276.812500</ele>
<time>2007-11-05T11:27:20.000Z</time>
</trkpt>
<trkpt lat="38.9656670" lon="-5.6313499">
<ele>276.101563</ele>
<time>2007-11-05T11:28:26.000Z</time>
</trkpt>
<trkpt lat="38.9656000" lon="-5.6314170">
<ele>276.812500</ele>
<time>2007-11-05T11:27:20.000Z</time>
</trkpt>
<trkpt lat="38.9653170" lon="-5.6314170">
<ele>278.589844</ele>
<time>2007-11-05T11:27:09.000Z</time>
</trkpt>
<trkpt lat="38.9650330" lon="-5.6315000">
<ele>277.207031</ele>
<time>2007-11-05T11:27:03.000Z</time>
</trkpt>
<trkpt lat="38.9648000" lon="-5.6316170">
<ele>276.144531</ele>
<time>2007-11-05T11:26:59.000Z</time>
</trkpt>
<trkpt lat="38.9640330" lon="-5.6321330">
<ele>275.605469</ele>
<time>2007-11-05T11:26:40.000Z</time>
</trkpt>
<trkpt lat="38.9639170" lon="-5.6322670">
<ele>276.136719</ele>
<time>2007-11-05T11:26:36.000Z</time>
</trkpt>
<trkpt lat="38.9638500" lon="-5.6323830">
<ele>276.144531</ele>
<time>2007-11-05T11:26:32.000Z</time>
</trkpt>
<trkpt lat="38.9638000" lon="-5.6325330">
<ele>276.320313</ele>
<time>2007-11-05T11:25:39.000Z</time>
</trkpt>
<trkpt lat="38.9636330" lon="-5.6326330">
<ele>276.851563</ele>
<time>2007-11-05T11:25:34.000Z</time>
</trkpt>
<trkpt lat="38.9635330" lon="-5.6326330">
<ele>276.898438</ele>
<time>2007-11-05T11:25:32.000Z</time>
</trkpt>
<trkpt lat="38.9634330" lon="-5.6326000">
<ele>276.812500</ele>
<time>2007-11-05T11:25:30.000Z</time>
</trkpt>
<trkpt lat="38.9633170" lon="-5.6325330">
<ele>276.878906</ele>
<time>2007-11-05T11:25:28.000Z</time>
</trkpt>
<trkpt lat="38.9632170" lon="-5.6324330">
<ele>276.996094</ele>
<time>2007-11-05T11:25:26.000Z</time>
</trkpt>
<trkpt lat="38.9629500" lon="-5.6322500">
<ele>277.031250</ele>
<time>2007-11-05T11:25:22.000Z</time>
</trkpt>
<trkpt lat="38.9628830" lon="-5.6322330">
<ele>277.050781</ele>
<time>2007-11-05T11:25:21.000Z</time>
</trkpt>
<trkpt lat="38.9626330" lon="-5.6322330">
<ele>277.457031</ele>
<time>2007-11-05T11:25:18.000Z</time>
</trkpt>
<trkpt lat="38.9623670" lon="-5.6324170">
<ele>278.863281</ele>
<time>2007-11-05T11:25:14.000Z</time>
</trkpt>
<trkpt lat="38.9618670" lon="-5.6329169">
<ele>282.230469</ele>
<time>2007-11-05T11:25:06.000Z</time>
</trkpt>
<trkpt lat="38.9612500" lon="-5.6333670">
<ele>282.929688</ele>
<time>2007-11-05T11:24:59.000Z</time>
</trkpt>
<trkpt lat="38.9611670" lon="-5.6334499">
<ele>283.578125</ele>
<time>2007-11-05T11:24:58.000Z</time>
</trkpt>
<trkpt lat="38.9609670" lon="-5.6337500">
<ele>286.796875</ele>
<time>2007-11-05T11:24:55.000Z</time>
</trkpt>
<trkpt lat="38.9608500" lon="-5.6340830">
<ele>289.968750</ele>
<time>2007-11-05T11:24:52.000Z</time>
</trkpt>
<trkpt lat="38.9608170" lon="-5.6343000">
<ele>292.121094</ele>
<time>2007-11-05T11:24:50.000Z</time>
</trkpt>
<trkpt lat="38.9608330" lon="-5.6347170">
<ele>294.386719</ele>
<time>2007-11-05T11:24:46.000Z</time>
</trkpt>
<trkpt lat="38.9608170" lon="-5.6355670">
<ele>299.875000</ele>
<time>2007-11-05T11:24:38.000Z</time>
</trkpt>
<trkpt lat="38.9608330" lon="-5.6356670">
<ele>300.515625</ele>
<time>2007-11-05T11:24:37.000Z</time>
</trkpt>
<trkpt lat="38.9609330" lon="-5.6359500">
<ele>301.796875</ele>
<time>2007-11-05T11:24:34.000Z</time>
</trkpt>
<trkpt lat="38.9610830" lon="-5.6367170">
<ele>304.808594</ele>
<time>2007-11-05T11:24:26.000Z</time>
</trkpt>
<trkpt lat="38.9610830" lon="-5.6368830">
<ele>305.683594</ele>
<time>2007-11-05T11:24:24.000Z</time>
</trkpt>
<trkpt lat="38.9610670" lon="-5.6369500">
<ele>306.125000</ele>
<time>2007-11-05T11:24:23.000Z</time>
</trkpt>
<trkpt lat="38.9609830" lon="-5.6370830">
<ele>307.703125</ele>
<time>2007-11-05T11:24:21.000Z</time>
</trkpt>
<trkpt lat="38.9608670" lon="-5.6371830">
<ele>309.277344</ele>
<time>2007-11-05T11:24:19.000Z</time>
</trkpt>
<trkpt lat="38.9607000" lon="-5.6372670">
<ele>310.925781</ele>
<time>2007-11-05T11:24:17.000Z</time>
</trkpt>
<trkpt lat="38.9600170" lon="-5.6374500">
<ele>316.828125</ele>
<time>2007-11-05T11:24:09.000Z</time>
</trkpt>
<trkpt lat="38.9595000" lon="-5.6376170">
<ele>320.621094</ele>
<time>2007-11-05T11:24:03.000Z</time>
</trkpt>
<trkpt lat="38.9586500" lon="-5.6378499">
<ele>329.445313</ele>
<time>2007-11-05T11:23:51.000Z</time>
</trkpt>
<trkpt lat="38.9584670" lon="-5.6378830">
<ele>330.296875</ele>
<time>2007-11-05T11:23:39.000Z</time>
</trkpt>
<trkpt lat="38.9582670" lon="-5.6379830">
<ele>329.820313</ele>
<time>2007-11-05T11:23:36.000Z</time>
</trkpt>
<trkpt lat="38.9582000" lon="-5.6380500">
<ele>329.550781</ele>
<time>2007-11-05T11:23:35.000Z</time>
</trkpt>
<trkpt lat="38.9577830" lon="-5.6383670">
<ele>328.484344</ele>
<time>2007-11-05T11:23:30.000Z</time>
</trkpt>
<trkpt lat="38.9573170" lon="-5.6385000">
<ele>328.898438</ele>
<time>2007-11-05T11:23:25.000Z</time>
</trkpt>
<trkpt lat="38.9570670" lon="-5.6386330">
<ele>330.792969</ele>
<time>2007-11-05T11:23:22.000Z</time>
</trkpt>
<trkpt lat="38.9570000" lon="-5.6386830">
<ele>331.246094</ele>
<time>2007-11-05T11:23:21.000Z</time>
</trkpt>
<trkpt lat="38.9565170" lon="-5.6393169">
<ele>329.328125</ele>
<time>2007-11-05T11:23:13.000Z</time>
</trkpt>
<trkpt lat="38.9563500" lon="-5.6394670">
<ele>328.128906</ele>
<time>2007-11-05T11:23:11.000Z</time>
</trkpt>
<trkpt lat="38.9561500" lon="-5.6396000">
<ele>327.714844</ele>
<time>2007-11-05T11:23:09.000Z</time>
</trkpt>
<trkpt lat="38.9559330" lon="-5.6396830">
<ele>327.609375</ele>
<time>2007-11-05T11:23:07.000Z</time>
</trkpt>
<trkpt lat="38.9555330" lon="-5.6397670">
<ele>329.550781</ele>
<time>2007-11-05T11:23:03.000Z</time>
</trkpt>
<trkpt lat="38.9553670" lon="-5.6398500">
<ele>330.667969</ele>
<time>2007-11-05T11:23:01.000Z</time>
</trkpt>
<trkpt lat="38.9552330" lon="-5.6399830">
<ele>332.191406</ele>
<time>2007-11-05T11:22:59.000Z</time>
</trkpt>
<trkpt lat="38.9550500" lon="-5.6402500">
<ele>333.742188</ele>
<time>2007-11-05T11:22:56.000Z</time>
</trkpt>
<trkpt lat="38.9549830" lon="-5.6403500">
<ele>334.031250</ele>
<time>2007-11-05T11:22:55.000Z</time>
</trkpt>
<trkpt lat="38.9547830" lon="-5.6408170">
<ele>332.500000</ele>
<time>2007-11-05T11:22:51.000Z</time>
</trkpt>
<trkpt lat="38.9538170" lon="-5.6425330">
<ele>323.082062</ele>
<time>2007-11-05T11:22:37.000Z</time>
</trkpt>
<trkpt lat="38.9536670" lon="-5.6427670">
<ele>322.699219</ele>
<time>2007-11-05T11:22:35.000Z</time>
</trkpt>
<trkpt lat="38.9531000" lon="-5.6435170">
<ele>324.746094</ele>
<time>2007-11-05T11:22:28.000Z</time>
</trkpt>
<trkpt lat="38.9529170" lon="-5.6436830">
<ele>325.257813</ele>
<time>2007-11-05T11:22:26.000Z</time>
</trkpt>
<trkpt lat="38.9526170" lon="-5.6438830">
<ele>324.542969</ele>
<time>2007-11-05T11:22:23.000Z</time>
</trkpt>
<trkpt lat="38.9521500" lon="-5.6442330">
<ele>322.312500</ele>
<time>2007-11-05T11:22:18.000Z</time>
</trkpt>
<trkpt lat="38.9520500" lon="-5.6442830">
<ele>321.953125</ele>
<time>2007-11-05T11:22:17.000Z</time>
</trkpt>
<trkpt lat="38.9518670" lon="-5.6444170">
<ele>320.960938</ele>
<time>2007-11-05T11:22:15.000Z</time>
</trkpt>
<trkpt lat="38.9513170" lon="-5.6450500">
<ele>315.335938</ele>
<time>2007-11-05T11:22:08.000Z</time>
</trkpt>
<trkpt lat="38.9507330" lon="-5.6454500">
<ele>311.335938</ele>
<time>2007-11-05T11:22:02.000Z</time>
</trkpt>
<trkpt lat="38.9498170" lon="-5.6462170">
<ele>313.011688</ele>
<time>2007-11-05T11:21:51.000Z</time>
</trkpt>
<trkpt lat="38.9497330" lon="-5.6463830">
<ele>314.445313</ele>
<time>2007-11-05T11:21:49.000Z</time>
</trkpt>
<trkpt lat="38.9497170" lon="-5.6465000">
<ele>315.105469</ele>
<time>2007-11-05T11:21:48.000Z</time>
</trkpt>
<trkpt lat="38.9497500" lon="-5.6468000">
<ele>316.601563</ele>
<time>2007-11-05T11:21:45.000Z</time>
</trkpt>
<trkpt lat="38.9497330" lon="-5.6469000">
<ele>317.058594</ele>
<time>2007-11-05T11:21:44.000Z</time>
</trkpt>
<trkpt lat="38.9496170" lon="-5.6470670">
<ele>317.320313</ele>
<time>2007-11-05T11:21:42.000Z</time>
</trkpt>
<trkpt lat="38.9495330" lon="-5.6471330">
<ele>317.054688</ele>
<time>2007-11-05T11:21:41.000Z</time>
</trkpt>
<trkpt lat="38.9493330" lon="-5.6472170">
<ele>316.550812</ele>
<time>2007-11-05T11:21:39.000Z</time>
</trkpt>
<trkpt lat="38.9487830" lon="-5.6473670">
<ele>316.234406</ele>
<time>2007-11-05T11:21:34.000Z</time>
</trkpt>
<trkpt lat="38.9479670" lon="-5.6478330">
<ele>317.417969</ele>
<time>2007-11-05T11:21:26.000Z</time>
</trkpt>
<trkpt lat="38.9477670" lon="-5.6479830">
<ele>318.015625</ele>
<time>2007-11-05T11:21:24.000Z</time>
</trkpt>
<trkpt lat="38.9476000" lon="-5.6481500">
<ele>318.269531</ele>
<time>2007-11-05T11:21:22.000Z</time>
</trkpt>
<trkpt lat="38.9473670" lon="-5.6484670">
<ele>318.640656</ele>
<time>2007-11-05T11:21:19.000Z</time>
</trkpt>
<trkpt lat="38.9471670" lon="-5.6488330">
<ele>319.449219</ele>
<time>2007-11-05T11:21:16.000Z</time>
</trkpt>
<trkpt lat="38.9467000" lon="-5.6495000">
<ele>320.359375</ele>
<time>2007-11-05T11:21:10.000Z</time>
</trkpt>
<trkpt lat="38.9465500" lon="-5.6496670">
<ele>320.554688</ele>
<time>2007-11-05T11:21:08.000Z</time>
</trkpt>
<trkpt lat="38.9462170" lon="-5.6498670">
<ele>321.097656</ele>
<time>2007-11-05T11:21:04.000Z</time>
</trkpt>
<trkpt lat="38.9459170" lon="-5.6499830">
<ele>321.175781</ele>
<time>2007-11-05T11:21:01.000Z</time>
</trkpt>
<trkpt lat="38.9455170" lon="-5.6501830">
<ele>322.402344</ele>
<time>2007-11-05T11:20:57.000Z</time>
</trkpt>
<trkpt lat="38.9454330" lon="-5.6502500">
<ele>322.894531</ele>
<time>2007-11-05T11:20:56.000Z</time>
</trkpt>
<trkpt lat="38.9453500" lon="-5.6503170">
<ele>323.082062</ele>
<time>2007-11-05T11:20:55.000Z</time>
</trkpt>
<trkpt lat="38.9448830" lon="-5.6509500">
<ele>324.292999</ele>
<time>2007-11-05T11:20:48.000Z</time>
</trkpt>
<trkpt lat="38.9447330" lon="-5.6511000">
<ele>324.906219</ele>
<time>2007-11-05T11:20:46.000Z</time>
</trkpt>
<trkpt lat="38.9445830" lon="-5.6512000">
<ele>325.269531</ele>
<time>2007-11-05T11:20:44.000Z</time>
</trkpt>
<trkpt lat="38.9440170" lon="-5.6515000">
<ele>325.742188</ele>
<time>2007-11-05T11:20:34.000Z</time>
</trkpt>
<trkpt lat="38.9436330" lon="-5.6517500">
<ele>327.062500</ele>
<time>2007-11-05T11:20:07.000Z</time>
</trkpt>
<trkpt lat="38.9434830" lon="-5.6518170">
<ele>327.359375</ele>
<time>2007-11-05T11:19:58.000Z</time>
</trkpt>
<trkpt lat="38.9434000" lon="-5.6518830">
<ele>327.570343</ele>
<time>2007-11-05T11:19:56.000Z</time>
</trkpt>
<trkpt lat="38.9433500" lon="-5.6519000">
<ele>327.679688</ele>
<time>2007-11-05T11:19:55.000Z</time>
</trkpt>
<trkpt lat="38.9430170" lon="-5.6520830">
<ele>328.910156</ele>
<time>2007-11-05T11:19:49.000Z</time>
</trkpt>
<trkpt lat="38.9426830" lon="-5.6522169">
<ele>329.875000</ele>
<time>2007-11-05T11:19:45.000Z</time>
</trkpt>
<trkpt lat="38.9423170" lon="-5.6524170">
<ele>332.265625</ele>
<time>2007-11-05T11:19:41.000Z</time>
</trkpt>
<trkpt lat="38.9421500" lon="-5.6525329">
<ele>333.824188</ele>
<time>2007-11-05T11:19:39.000Z</time>
</trkpt>
<trkpt lat="38.9418670" lon="-5.6526830">
<ele>335.515625</ele>
<time>2007-11-05T11:19:36.000Z</time>
</trkpt>
<trkpt lat="38.9416830" lon="-5.6528170">
<ele>336.847656</ele>
<time>2007-11-05T11:19:34.000Z</time>
</trkpt>
<trkpt lat="38.9409830" lon="-5.6537330">
<ele>341.390625</ele>
<time>2007-11-05T11:19:24.000Z</time>
</trkpt>
<trkpt lat="38.9406330" lon="-5.6540830">
<ele>342.093750</ele>
<time>2007-11-05T11:19:20.000Z</time>
</trkpt>
<trkpt lat="38.9399670" lon="-5.6548500">
<ele>341.468750</ele>
<time>2007-11-05T11:19:12.000Z</time>
</trkpt>
<trkpt lat="38.9397830" lon="-5.6550330">
<ele>341.023438</ele>
<time>2007-11-05T11:19:10.000Z</time>
</trkpt>
<trkpt lat="38.9394170" lon="-5.6553170">
<ele>339.355469</ele>
<time>2007-11-05T11:19:06.000Z</time>
</trkpt>
<trkpt lat="38.9392170" lon="-5.6556000">
<ele>338.910156</ele>
<time>2007-11-05T11:19:03.000Z</time>
</trkpt>
<trkpt lat="38.9389500" lon="-5.6561830">
<ele>339.792938</ele>
<time>2007-11-05T11:18:58.000Z</time>
</trkpt>
<trkpt lat="38.9387670" lon="-5.6565000">
<ele>342.164032</ele>
<time>2007-11-05T11:18:55.000Z</time>
</trkpt>
<trkpt lat="38.9377830" lon="-5.6575500">
<ele>346.851563</ele>
<time>2007-11-05T11:18:43.000Z</time>
</trkpt>
<trkpt lat="38.9377170" lon="-5.6576500">
<ele>346.562500</ele>
<time>2007-11-05T11:18:42.000Z</time>
</trkpt>
<trkpt lat="38.9371830" lon="-5.6581670">
<ele>342.492188</ele>
<time>2007-11-05T11:18:35.000Z</time>
</trkpt>
<trkpt lat="38.9365670" lon="-5.6588500">
<ele>337.800781</ele>
<time>2007-11-05T11:18:28.000Z</time>
</trkpt>
<trkpt lat="38.9363330" lon="-5.6591670">
<ele>337.257813</ele>
<time>2007-11-05T11:18:25.000Z</time>
</trkpt>
<trkpt lat="38.9360830" lon="-5.6594330">
<ele>338.097656</ele>
<time>2007-11-05T11:18:22.000Z</time>
</trkpt>
<trkpt lat="38.9358000" lon="-5.6598830">
<ele>340.015625</ele>
<time>2007-11-05T11:18:18.000Z</time>
</trkpt>
<trkpt lat="38.9355500" lon="-5.6604670">
<ele>343.023468</ele>
<time>2007-11-05T11:18:12.000Z</time>
</trkpt>
<trkpt lat="38.9354670" lon="-5.6606170">
<ele>343.898438</ele>
<time>2007-11-05T11:18:10.000Z</time>
</trkpt>
<trkpt lat="38.9353330" lon="-5.6607830">
<ele>344.597656</ele>
<time>2007-11-05T11:18:08.000Z</time>
</trkpt>
<trkpt lat="38.9350670" lon="-5.6610670">
<ele>345.328125</ele>
<time>2007-11-05T11:18:05.000Z</time>
</trkpt>
<trkpt lat="38.9345500" lon="-5.6614830">
<ele>346.023468</ele>
<time>2007-11-05T11:18:00.000Z</time>
</trkpt>
<trkpt lat="38.9342170" lon="-5.6617330">
<ele>346.011749</ele>
<time>2007-11-05T11:17:57.000Z</time>
</trkpt>
<trkpt lat="38.9336500" lon="-5.6623500">
<ele>346.394531</ele>
<time>2007-11-05T11:17:51.000Z</time>
</trkpt>
<trkpt lat="38.9334330" lon="-5.6625500">
<ele>346.664063</ele>
<time>2007-11-05T11:17:49.000Z</time>
</trkpt>
<trkpt lat="38.9327830" lon="-5.6630500">
<ele>348.003906</ele>
<time>2007-11-05T11:17:43.000Z</time>
</trkpt>
<trkpt lat="38.9325500" lon="-5.6631830">
<ele>348.691437</ele>
<time>2007-11-05T11:17:41.000Z</time>
</trkpt>
<trkpt lat="38.9324500" lon="-5.6632670">
<ele>348.839844</ele>
<time>2007-11-05T11:17:40.000Z</time>
</trkpt>
<trkpt lat="38.9320830" lon="-5.6634830">
<ele>349.757813</ele>
<time>2007-11-05T11:17:37.000Z</time>
</trkpt>
<trkpt lat="38.9317330" lon="-5.6637330">
<ele>350.988281</ele>
<time>2007-11-05T11:17:34.000Z</time>
</trkpt>
<trkpt lat="38.9311830" lon="-5.6642000">
<ele>352.414063</ele>
<time>2007-11-05T11:17:29.000Z</time>
</trkpt>
<trkpt lat="38.9309500" lon="-5.6643500">
<ele>352.839844</ele>
<time>2007-11-05T11:17:27.000Z</time>
</trkpt>
<trkpt lat="38.9305830" lon="-5.6644500">
<ele>353.867188</ele>
<time>2007-11-05T11:17:24.000Z</time>
</trkpt>
<trkpt lat="38.9303330" lon="-5.6644500">
<ele>353.910156</ele>
<time>2007-11-05T11:17:22.000Z</time>
</trkpt>
<trkpt lat="38.9302000" lon="-5.6644500">
<ele>353.996094</ele>
<time>2007-11-05T11:17:21.000Z</time>
</trkpt>
<trkpt lat="38.9296830" lon="-5.6643829">
<ele>354.937531</ele>
<time>2007-11-05T11:17:17.000Z</time>
</trkpt>
<trkpt lat="38.9293000" lon="-5.6643829">
<ele>355.746094</ele>
<time>2007-11-05T11:17:14.000Z</time>
</trkpt>
<trkpt lat="38.9285500" lon="-5.6645500">
<ele>356.015625</ele>
<time>2007-11-05T11:17:07.000Z</time>
</trkpt>
<trkpt lat="38.9283330" lon="-5.6646170">
<ele>356.000000</ele>
<time>2007-11-05T11:17:05.000Z</time>
</trkpt>
<trkpt lat="38.9281330" lon="-5.6646999">
<ele>356.460907</ele>
<time>2007-11-05T11:17:03.000Z</time>
</trkpt>
<trkpt lat="38.9279500" lon="-5.6648330">
<ele>356.671875</ele>
<time>2007-11-05T11:17:01.000Z</time>
</trkpt>
<trkpt lat="38.9277000" lon="-5.6650670">
<ele>356.800781</ele>
<time>2007-11-05T11:16:58.000Z</time>
</trkpt>
<trkpt lat="38.9273000" lon="-5.6655670">
<ele>354.421875</ele>
<time>2007-11-05T11:16:51.000Z</time>
</trkpt>
<trkpt lat="38.9272330" lon="-5.6656170">
<ele>353.847656</ele>
<time>2007-11-05T11:16:50.000Z</time>
</trkpt>
<trkpt lat="38.9270830" lon="-5.6657830">
<ele>352.507813</ele>
<time>2007-11-05T11:16:47.000Z</time>
</trkpt>
<trkpt lat="38.9266330" lon="-5.6660000">
<ele>351.054688</ele>
<time>2007-11-05T11:16:39.000Z</time>
</trkpt>
<trkpt lat="38.9265670" lon="-5.6660670">
<ele>350.964844</ele>
<time>2007-11-05T11:16:37.000Z</time>
</trkpt>
<trkpt lat="38.9261330" lon="-5.6666670">
<ele>351.078156</ele>
<time>2007-11-05T11:15:42.000Z</time>
</trkpt>
<trkpt lat="38.9260000" lon="-5.6668330">
<ele>351.871094</ele>
<time>2007-11-05T11:15:38.000Z</time>
</trkpt>
<trkpt lat="38.9258170" lon="-5.6669670">
<ele>352.570343</ele>
<time>2007-11-05T11:15:33.000Z</time>
</trkpt>
<trkpt lat="38.9254500" lon="-5.6670330">
<ele>353.250000</ele>
<time>2007-11-05T11:15:27.000Z</time>
</trkpt>
<trkpt lat="38.9251830" lon="-5.6669830">
<ele>353.937500</ele>
<time>2007-11-05T11:15:23.000Z</time>
</trkpt>
<trkpt lat="38.9250500" lon="-5.6669170">
<ele>354.191406</ele>
<time>2007-11-05T11:15:21.000Z</time>
</trkpt>
<trkpt lat="38.9248670" lon="-5.6667670">
<ele>354.242188</ele>
<time>2007-11-05T11:15:18.000Z</time>
</trkpt>
<trkpt lat="38.9247670" lon="-5.6666330">
<ele>354.472656</ele>
<time>2007-11-05T11:15:16.000Z</time>
</trkpt>
<trkpt lat="38.9245830" lon="-5.6664829">
<ele>354.699219</ele>
<time>2007-11-05T11:15:13.000Z</time>
</trkpt>
<trkpt lat="38.9245170" lon="-5.6664500">
<ele>354.578125</ele>
<time>2007-11-05T11:15:12.000Z</time>
</trkpt>
<trkpt lat="38.9243330" lon="-5.6663170">
<ele>354.449219</ele>
<time>2007-11-05T11:15:09.000Z</time>
</trkpt>
<trkpt lat="38.9240170" lon="-5.6660330">
<ele>354.648468</ele>
<time>2007-11-05T11:15:03.000Z</time>
</trkpt>
<trkpt lat="38.9239000" lon="-5.6659830">
<ele>354.875000</ele>
<time>2007-11-05T11:15:01.000Z</time>
</trkpt>
<trkpt lat="38.9236500" lon="-5.6659830">
<ele>356.148407</ele>
<time>2007-11-05T11:14:55.000Z</time>
</trkpt>
<trkpt lat="38.9235170" lon="-5.6660170">
<ele>357.226563</ele>
<time>2007-11-05T11:14:50.000Z</time>
</trkpt>
<trkpt lat="38.9232330" lon="-5.6660330">
<ele>359.316406</ele>
<time>2007-11-05T11:14:37.000Z</time>
</trkpt>
<trkpt lat="38.9232000" lon="-5.6660500">
<ele>359.425751</ele>
<time>2007-11-05T11:14:08.000Z</time>
</trkpt>
<trkpt lat="38.9230670" lon="-5.6660170">
<ele>360.085938</ele>
<time>2007-11-05T11:14:03.000Z</time>
</trkpt>
<trkpt lat="38.9229830" lon="-5.6659500">
<ele>360.609406</ele>
<time>2007-11-05T11:14:01.000Z</time>
</trkpt>
<trkpt lat="38.9226000" lon="-5.6654670">
<ele>361.253906</ele>
<time>2007-11-05T11:13:53.000Z</time>
</trkpt>
<trkpt lat="38.9224330" lon="-5.6652000">
<ele>361.945313</ele>
<time>2007-11-05T11:13:49.000Z</time>
</trkpt>
<trkpt lat="38.9222170" lon="-5.6649330">
<ele>362.195313</ele>
<time>2007-11-05T11:13:44.000Z</time>
</trkpt>
<trkpt lat="38.9221000" lon="-5.6647170">
<ele>362.203125</ele>
<time>2007-11-05T11:13:38.000Z</time>
</trkpt>
</trkseg>
</trk>
</gpx>
